OMA678 WAAA-WADL
Flight info
| Callsign | OMA678 |
|---|---|
| Flight time | 0h 56m |
| Altitude | 36000 |
| Route | LIPOT W41 PEDET DCT AGUNG |
| Aircraft | B789/H-SDE1E2E3FGHIJ2J3J4J5M1RWXY/LB1D1 |
Departure
| Time | 2026-04-25 12:08 |
|---|---|
| Airport | Sultan Hasanuddin International Airport (WAAA) |
Arrival
| Time | 2026-04-25 13:04 |
|---|---|
| Airport | Lombok International Airport (WADL) |
| Time | Latitude | Longitude | Altitude | Speed | Heading |
|---|---|---|---|---|---|
| 2026-04-25 11:37 | -5.07911 | 119.54690 | 46 ft | 0 kts | 299° |
| 2026-04-25 11:55 | -5.07912 | 119.54691 | 46 ft | 1 kts | 299° |
| 2026-04-25 11:56 | -5.07920 | 119.54705 | 43 ft | 3 kts | 303° |
| 2026-04-25 11:56 | -5.07932 | 119.54721 | 44 ft | 3 kts | 315° |
| 2026-04-25 11:56 | -5.07945 | 119.54732 | 43 ft | 3 kts | 342° |
| 2026-04-25 11:56 | -5.07955 | 119.54734 | 43 ft | 2 kts | 22° |
| 2026-04-25 11:57 | -5.07959 | 119.54733 | 44 ft | 0 kts | 29° |
| 2026-04-25 12:00 | -5.07921 | 119.54754 | 46 ft | 8 kts | 30° |
| 2026-04-25 12:01 | -5.07859 | 119.54789 | 47 ft | 12 kts | 30° |
| 2026-04-25 12:01 | -5.07770 | 119.54842 | 47 ft | 17 kts | 31° |
| 2026-04-25 12:01 | -5.07658 | 119.54907 | 47 ft | 21 kts | 30° |
| 2026-04-25 12:01 | -5.07584 | 119.54997 | 47 ft | 16 kts | 91° |
| 2026-04-25 12:02 | -5.07561 | 119.55161 | 46 ft | 12 kts | 31° |
| 2026-04-25 12:02 | -5.07473 | 119.55215 | 46 ft | 17 kts | 31° |
| 2026-04-25 12:02 | -5.07358 | 119.55279 | 47 ft | 21 kts | 30° |
| 2026-04-25 12:03 | -5.07218 | 119.55360 | 46 ft | 25 kts | 30° |
| 2026-04-25 12:03 | -5.07056 | 119.55453 | 46 ft | 29 kts | 31° |
| 2026-04-25 12:03 | -5.06873 | 119.55558 | 46 ft | 32 kts | 29° |
| 2026-04-25 12:03 | -5.06673 | 119.55675 | 47 ft | 27 kts | 35° |
| 2026-04-25 12:04 | -5.06657 | 119.55722 | 47 ft | 1 kts | 125° |
| 2026-04-25 12:04 | -5.06670 | 119.55738 | 47 ft | 5 kts | 130° |
| 2026-04-25 12:04 | -5.06671 | 119.55738 | 47 ft | 0 kts | 130° |
| 2026-04-25 12:05 | -5.06676 | 119.55745 | 47 ft | 2 kts | 130° |
| 2026-04-25 12:05 | -5.06691 | 119.55762 | 47 ft | 4 kts | 130° |
| 2026-04-25 12:05 | -5.06714 | 119.55788 | 47 ft | 6 kts | 135° |
| 2026-04-25 12:05 | -5.06753 | 119.55813 | 47 ft | 7 kts | 166° |
| 2026-04-25 12:06 | -5.06799 | 119.55804 | 47 ft | 8 kts | 201° |
| 2026-04-25 12:06 | -5.06829 | 119.55788 | 47 ft | 0 kts | 208° |
| 2026-04-25 12:07 | -5.06831 | 119.55787 | 47 ft | 1 kts | 208° |
| 2026-04-25 12:07 | -5.06885 | 119.55755 | 46 ft | 18 kts | 211° |
| 2026-04-25 12:07 | -5.07197 | 119.55575 | 45 ft | 92 kts | 210° |
| 2026-04-25 12:07 | -5.07989 | 119.55120 | 46 ft | 168 kts | 210° |
| 2026-04-25 12:08 | -5.09135 | 119.54451 | 654 ft | 183 kts | 206° |
| 2026-04-25 12:08 | -5.10116 | 119.53870 | 2062 ft | 163 kts | 210° |
| 2026-04-25 12:08 | -5.11183 | 119.53230 | 2412 ft | 195 kts | 209° |
| 2026-04-25 12:08 | -5.12461 | 119.52531 | 2746 ft | 224 kts | 208° |
| 2026-04-25 12:09 | -5.13386 | 119.51972 | 2958 ft | 245 kts | 216° |
| 2026-04-25 12:09 | -5.14340 | 119.50551 | 3850 ft | 252 kts | 246° |
| 2026-04-25 12:09 | -5.15144 | 119.48856 | 4816 ft | 275 kts | 242° |
| 2026-04-25 12:09 | -5.16014 | 119.47155 | 6061 ft | 278 kts | 242° |
| 2026-04-25 12:10 | -5.16900 | 119.45382 | 7271 ft | 283 kts | 243° |
| 2026-04-25 12:10 | -5.17773 | 119.43596 | 8437 ft | 289 kts | 243° |
| 2026-04-25 12:10 | -5.18669 | 119.41769 | 9615 ft | 294 kts | 243° |
| 2026-04-25 12:10 | -5.19589 | 119.39905 | 10527 ft | 308 kts | 243° |
| 2026-04-25 12:11 | -5.20585 | 119.37890 | 11017 ft | 336 kts | 243° |
| 2026-04-25 12:11 | -5.21657 | 119.35714 | 11581 ft | 357 kts | 243° |
| 2026-04-25 12:11 | -5.22761 | 119.33468 | 12712 ft | 360 kts | 243° |
| 2026-04-25 12:11 | -5.23872 | 119.31213 | 13744 ft | 366 kts | 243° |
| 2026-04-25 12:12 | -5.25000 | 119.28925 | 14675 ft | 372 kts | 243° |
| 2026-04-25 12:12 | -5.26168 | 119.26555 | 15602 ft | 379 kts | 243° |
| 2026-04-25 12:12 | -5.27344 | 119.24165 | 16501 ft | 385 kts | 243° |
| 2026-04-25 12:12 | -5.28526 | 119.21765 | 17367 ft | 391 kts | 243° |
| 2026-04-25 12:13 | -5.29758 | 119.19263 | 18235 ft | 398 kts | 243° |
| 2026-04-25 12:13 | -5.30976 | 119.16789 | 18960 ft | 403 kts | 243° |
| 2026-04-25 12:13 | -5.32243 | 119.14214 | 19710 ft | 408 kts | 242° |
| 2026-04-25 12:13 | -5.33654 | 119.11781 | 20427 ft | 411 kts | 229° |
| 2026-04-25 12:14 | -5.35558 | 119.09624 | 21084 ft | 416 kts | 226° |
| 2026-04-25 12:14 | -5.37597 | 119.07394 | 21834 ft | 421 kts | 226° |
| 2026-04-25 12:14 | -5.39609 | 119.05195 | 22515 ft | 426 kts | 226° |
| 2026-04-25 12:14 | -5.41616 | 119.02976 | 23199 ft | 431 kts | 226° |
| 2026-04-25 12:15 | -5.43637 | 119.00735 | 23759 ft | 436 kts | 226° |
| 2026-04-25 12:15 | -5.45666 | 118.98500 | 24333 ft | 440 kts | 226° |
| 2026-04-25 12:15 | -5.47738 | 118.96222 | 24888 ft | 443 kts | 226° |
| 2026-04-25 12:15 | -5.49824 | 118.93918 | 25423 ft | 447 kts | 226° |
| 2026-04-25 12:16 | -5.51924 | 118.91598 | 25972 ft | 451 kts | 226° |
| 2026-04-25 12:16 | -5.54043 | 118.89260 | 26506 ft | 455 kts | 226° |
| 2026-04-25 12:16 | -5.56181 | 118.86903 | 27024 ft | 459 kts | 226° |
| 2026-04-25 12:16 | -5.58339 | 118.84521 | 27542 ft | 462 kts | 226° |
| 2026-04-25 12:17 | -5.60513 | 118.82121 | 28055 ft | 466 kts | 226° |
| 2026-04-25 12:17 | -5.62704 | 118.79702 | 28546 ft | 470 kts | 226° |
| 2026-04-25 12:17 | -5.64912 | 118.77264 | 29023 ft | 473 kts | 226° |
| 2026-04-25 12:17 | -5.67137 | 118.74807 | 29496 ft | 477 kts | 226° |
| 2026-04-25 12:18 | -5.69377 | 118.72334 | 29953 ft | 481 kts | 226° |
| 2026-04-25 12:18 | -5.71636 | 118.69839 | 30337 ft | 484 kts | 226° |
| 2026-04-25 12:18 | -5.73910 | 118.67327 | 30726 ft | 487 kts | 226° |
| 2026-04-25 12:18 | -5.76193 | 118.64803 | 31101 ft | 490 kts | 226° |
| 2026-04-25 12:19 | -5.80025 | 118.60570 | 31688 ft | 495 kts | 226° |
| 2026-04-25 12:19 | -5.83044 | 118.57234 | 32130 ft | 498 kts | 226° |
| 2026-04-25 12:19 | -5.85437 | 118.54589 | 32472 ft | 501 kts | 226° |
| 2026-04-25 12:20 | -5.87786 | 118.51992 | 32806 ft | 504 kts | 226° |
| 2026-04-25 12:20 | -5.90151 | 118.49377 | 33142 ft | 506 kts | 227° |
| 2026-04-25 12:20 | -5.92517 | 118.46761 | 33609 ft | 505 kts | 227° |
| 2026-04-25 12:20 | -5.94885 | 118.44141 | 34035 ft | 505 kts | 227° |
| 2026-04-25 12:21 | -5.97194 | 118.41587 | 34418 ft | 504 kts | 227° |
| 2026-04-25 12:21 | -5.99552 | 118.38978 | 34823 ft | 503 kts | 227° |
| 2026-04-25 12:21 | -6.01906 | 118.36374 | 35238 ft | 502 kts | 227° |
| 2026-04-25 12:21 | -6.04250 | 118.33781 | 35674 ft | 500 kts | 227° |
| 2026-04-25 12:22 | -6.06593 | 118.31187 | 35916 ft | 503 kts | 227° |
| 2026-04-25 12:22 | -6.11278 | 118.26002 | 35900 ft | 501 kts | 227° |
| 2026-04-25 12:23 | -6.15944 | 118.20834 | 35918 ft | 497 kts | 227° |
| 2026-04-25 12:23 | -6.20590 | 118.15690 | 35919 ft | 497 kts | 227° |
| 2026-04-25 12:24 | -6.25230 | 118.10548 | 35924 ft | 496 kts | 227° |
| 2026-04-25 12:24 | -6.29854 | 118.05425 | 35916 ft | 497 kts | 227° |
| 2026-04-25 12:25 | -6.34499 | 118.00276 | 35916 ft | 497 kts | 227° |
| 2026-04-25 12:25 | -6.39142 | 117.95127 | 35921 ft | 497 kts | 227° |
| 2026-04-25 12:26 | -6.43787 | 117.89975 | 35918 ft | 496 kts | 227° |
| 2026-04-25 12:26 | -6.48316 | 117.84951 | 35917 ft | 497 kts | 227° |
| 2026-04-25 12:27 | -6.53037 | 117.79711 | 35917 ft | 497 kts | 227° |
| 2026-04-25 12:27 | -6.57683 | 117.74553 | 35918 ft | 497 kts | 227° |
| 2026-04-25 12:28 | -6.62324 | 117.69399 | 35919 ft | 496 kts | 227° |
| 2026-04-25 12:28 | -6.66954 | 117.64256 | 35919 ft | 496 kts | 227° |
| 2026-04-25 12:29 | -6.71435 | 117.58973 | 35928 ft | 496 kts | 229° |
| 2026-04-25 12:29 | -6.75944 | 117.53703 | 35934 ft | 496 kts | 230° |
| 2026-04-25 12:30 | -6.80385 | 117.48380 | 35930 ft | 496 kts | 229° |
| 2026-04-25 12:30 | -6.84836 | 117.43123 | 35931 ft | 496 kts | 229° |
| 2026-04-25 12:31 | -6.89291 | 117.37814 | 35934 ft | 496 kts | 229° |
| 2026-04-25 12:31 | -6.93758 | 117.32513 | 35933 ft | 496 kts | 229° |
| 2026-04-25 12:32 | -6.98220 | 117.27204 | 35933 ft | 496 kts | 230° |
| 2026-04-25 12:32 | -7.02677 | 117.21906 | 35932 ft | 496 kts | 230° |
| 2026-04-25 12:33 | -7.07141 | 117.16595 | 35934 ft | 496 kts | 230° |
| 2026-04-25 12:33 | -7.11590 | 117.11300 | 35935 ft | 496 kts | 230° |
| 2026-04-25 12:34 | -7.16051 | 117.05990 | 35934 ft | 496 kts | 230° |
| 2026-04-25 12:34 | -7.20505 | 117.00686 | 35934 ft | 496 kts | 230° |
| 2026-04-25 12:35 | -7.24956 | 116.95383 | 35935 ft | 495 kts | 230° |
| 2026-04-25 12:35 | -7.29403 | 116.90084 | 35936 ft | 495 kts | 230° |
| 2026-04-25 12:36 | -7.33821 | 116.84818 | 35937 ft | 495 kts | 230° |
| 2026-04-25 12:36 | -7.38261 | 116.79523 | 35934 ft | 494 kts | 230° |
| 2026-04-25 12:37 | -7.42705 | 116.74223 | 35934 ft | 494 kts | 230° |
| 2026-04-25 12:37 | -7.47133 | 116.68939 | 35935 ft | 494 kts | 230° |
| 2026-04-25 12:38 | -7.51398 | 116.63517 | 35959 ft | 493 kts | 241° |
| 2026-04-25 12:38 | -7.54540 | 116.57368 | 35943 ft | 493 kts | 243° |
| 2026-04-25 12:39 | -7.57639 | 116.51188 | 35942 ft | 494 kts | 243° |
| 2026-04-25 12:39 | -7.60747 | 116.45021 | 35941 ft | 493 kts | 243° |
| 2026-04-25 12:40 | -7.63843 | 116.38852 | 35941 ft | 493 kts | 243° |
| 2026-04-25 12:40 | -7.66950 | 116.32675 | 35944 ft | 493 kts | 243° |
| 2026-04-25 12:41 | -7.70048 | 116.26501 | 35944 ft | 494 kts | 243° |
| 2026-04-25 12:41 | -7.73153 | 116.20320 | 35940 ft | 493 kts | 243° |
| 2026-04-25 12:42 | -7.76247 | 116.14151 | 35939 ft | 493 kts | 243° |
| 2026-04-25 12:42 | -7.79342 | 116.07981 | 35940 ft | 493 kts | 243° |
| 2026-04-25 12:42 | -7.80874 | 116.04926 | 35899 ft | 480 kts | 243° |
| 2026-04-25 12:43 | -7.82367 | 116.01949 | 35216 ft | 474 kts | 243° |
| 2026-04-25 12:43 | -7.83847 | 115.98995 | 34424 ft | 471 kts | 243° |
| 2026-04-25 12:43 | -7.86782 | 115.93191 | 32861 ft | 458 kts | 238° |
| 2026-04-25 12:44 | -7.88676 | 115.90627 | 32093 ft | 451 kts | 224° |
| 2026-04-25 12:44 | -7.90271 | 115.89178 | 31555 ft | 445 kts | 214° |
| 2026-04-25 12:44 | -7.95802 | 115.86777 | 30079 ft | 429 kts | 185° |
| 2026-04-25 12:45 | -7.98757 | 115.86712 | 29235 ft | 421 kts | 170° |
| 2026-04-25 12:45 | -8.01554 | 115.87426 | 28405 ft | 412 kts | 154° |
| 2026-04-25 12:45 | -8.05736 | 115.90951 | 27643 ft | 390 kts | 119° |
| 2026-04-25 12:46 | -8.06847 | 115.93424 | 27233 ft | 400 kts | 108° |
| 2026-04-25 12:46 | -8.07532 | 115.96158 | 26785 ft | 395 kts | 99° |
| 2026-04-25 12:46 | -8.07937 | 115.98885 | 26326 ft | 391 kts | 98° |
| 2026-04-25 12:46 | -8.08363 | 116.01588 | 25877 ft | 387 kts | 101° |
| 2026-04-25 12:47 | -8.09007 | 116.04120 | 25445 ft | 384 kts | 107° |
| 2026-04-25 12:47 | -8.09875 | 116.06758 | 24996 ft | 380 kts | 108° |
| 2026-04-25 12:47 | -8.10643 | 116.09297 | 24560 ft | 377 kts | 105° |
| 2026-04-25 12:47 | -8.11452 | 116.11798 | 24138 ft | 373 kts | 117° |
| 2026-04-25 12:48 | -8.12871 | 116.13973 | 23739 ft | 371 kts | 132° |
| 2026-04-25 12:48 | -8.14754 | 116.15619 | 23299 ft | 373 kts | 147° |
| 2026-04-25 12:48 | -8.17179 | 116.16752 | 22853 ft | 373 kts | 162° |
| 2026-04-25 12:48 | -8.19660 | 116.17509 | 22416 ft | 372 kts | 161° |
| 2026-04-25 12:49 | -8.22134 | 116.18234 | 22005 ft | 368 kts | 162° |
| 2026-04-25 12:49 | -8.24543 | 116.18923 | 21545 ft | 364 kts | 162° |
| 2026-04-25 12:49 | -8.26987 | 116.19639 | 21006 ft | 364 kts | 162° |
| 2026-04-25 12:49 | -8.29434 | 116.20360 | 20536 ft | 365 kts | 162° |
| 2026-04-25 12:50 | -8.31799 | 116.21051 | 20024 ft | 364 kts | 162° |
| 2026-04-25 12:50 | -8.34275 | 116.21770 | 19473 ft | 362 kts | 162° |
| 2026-04-25 12:50 | -8.36688 | 116.22475 | 19026 ft | 359 kts | 162° |
| 2026-04-25 12:50 | -8.39051 | 116.23168 | 18964 ft | 347 kts | 162° |
| 2026-04-25 12:51 | -8.41366 | 116.23849 | 18964 ft | 347 kts | 162° |
| 2026-04-25 12:51 | -8.43689 | 116.24531 | 18507 ft | 349 kts | 162° |
| 2026-04-25 12:51 | -8.46033 | 116.25218 | 17953 ft | 349 kts | 162° |
| 2026-04-25 12:51 | -8.48266 | 116.25872 | 17475 ft | 346 kts | 162° |
| 2026-04-25 12:52 | -8.50625 | 116.26564 | 16948 ft | 343 kts | 162° |
| 2026-04-25 12:52 | -8.52910 | 116.27235 | 16443 ft | 340 kts | 162° |
| 2026-04-25 12:52 | -8.55045 | 116.28176 | 15921 ft | 334 kts | 143° |
| 2026-04-25 12:52 | -8.56736 | 116.29754 | 15396 ft | 329 kts | 130° |
| 2026-04-25 12:53 | -8.58235 | 116.31501 | 14878 ft | 328 kts | 130° |
| 2026-04-25 12:53 | -8.59710 | 116.33236 | 14407 ft | 325 kts | 130° |
| 2026-04-25 12:53 | -8.61166 | 116.34948 | 13924 ft | 322 kts | 130° |
| 2026-04-25 12:53 | -8.62643 | 116.36677 | 13404 ft | 320 kts | 130° |
| 2026-04-25 12:54 | -8.64093 | 116.38372 | 12883 ft | 317 kts | 130° |
| 2026-04-25 12:54 | -8.65528 | 116.40054 | 12362 ft | 314 kts | 130° |
| 2026-04-25 12:54 | -8.66949 | 116.41719 | 11849 ft | 312 kts | 130° |
| 2026-04-25 12:54 | -8.68359 | 116.43372 | 11344 ft | 310 kts | 130° |
| 2026-04-25 12:55 | -8.69766 | 116.45021 | 10840 ft | 307 kts | 130° |
| 2026-04-25 12:55 | -8.70683 | 116.46095 | 10718 ft | 298 kts | 130° |
| 2026-04-25 12:55 | -8.72478 | 116.48199 | 10187 ft | 290 kts | 130° |
| 2026-04-25 12:55 | -8.73341 | 116.49213 | 10102 ft | 281 kts | 130° |
| 2026-04-25 12:56 | -8.78625 | 116.55160 | 8219 ft | 273 kts | 149° |
| 2026-04-25 12:57 | -8.80371 | 116.55812 | 7778 ft | 273 kts | 171° |
| 2026-04-25 12:57 | -8.82277 | 116.55653 | 7331 ft | 274 kts | 197° |
| 2026-04-25 12:57 | -8.83902 | 116.54719 | 6887 ft | 275 kts | 222° |
| 2026-04-25 12:57 | -8.85174 | 116.53281 | 6433 ft | 274 kts | 228° |
| 2026-04-25 12:58 | -8.86406 | 116.51815 | 5994 ft | 272 kts | 229° |
| 2026-04-25 12:58 | -8.87583 | 116.50403 | 5899 ft | 253 kts | 228° |
| 2026-04-25 12:58 | -8.88674 | 116.49104 | 5868 ft | 231 kts | 228° |
| 2026-04-25 12:58 | -8.89671 | 116.47901 | 5707 ft | 217 kts | 232° |
| 2026-04-25 12:59 | -8.90149 | 116.46522 | 5509 ft | 203 kts | 265° |
| 2026-04-25 12:59 | -8.89883 | 116.45167 | 5229 ft | 206 kts | 298° |
| 2026-04-25 12:59 | -8.88987 | 116.43993 | 4786 ft | 212 kts | 311° |
| 2026-04-25 12:59 | -8.88054 | 116.42846 | 4326 ft | 209 kts | 310° |
| 2026-04-25 13:00 | -8.87161 | 116.41737 | 3844 ft | 200 kts | 310° |
| 2026-04-25 13:00 | -8.86586 | 116.41019 | 3522 ft | 198 kts | 310° |
| 2026-04-25 13:00 | -8.85440 | 116.39595 | 2895 ft | 193 kts | 310° |
| 2026-04-25 13:00 | -8.84599 | 116.38551 | 2430 ft | 188 kts | 310° |
| 2026-04-25 13:01 | -8.83783 | 116.37538 | 2023 ft | 180 kts | 310° |
| 2026-04-25 13:01 | -8.83040 | 116.36613 | 1988 ft | 163 kts | 310° |
| 2026-04-25 13:01 | -8.82316 | 116.35713 | 1814 ft | 170 kts | 310° |
| 2026-04-25 13:01 | -8.81595 | 116.34823 | 1436 ft | 158 kts | 311° |
| 2026-04-25 13:02 | -8.80892 | 116.33952 | 1141 ft | 154 kts | 311° |
| 2026-04-25 13:02 | -8.80230 | 116.33128 | 1004 ft | 147 kts | 309° |
| 2026-04-25 13:02 | -8.79564 | 116.32301 | 1008 ft | 155 kts | 310° |
| 2026-04-25 13:02 | -8.78924 | 116.31514 | 1001 ft | 155 kts | 310° |
| 2026-04-25 13:03 | -8.78234 | 116.30655 | 804 ft | 156 kts | 309° |
| 2026-04-25 13:03 | -8.77575 | 116.29837 | 628 ft | 147 kts | 309° |
| 2026-04-25 13:03 | -8.76926 | 116.29019 | 426 ft | 150 kts | 309° |
| 2026-04-25 13:03 | -8.76304 | 116.28255 | 349 ft | 116 kts | 307° |
| 2026-04-25 13:04 | -8.76007 | 116.27883 | 353 ft | 29 kts | 308° |
| 2026-04-25 13:04 | -8.75898 | 116.27741 | 335 ft | 31 kts | 307° |
| 2026-04-25 13:04 | -8.75772 | 116.27586 | 336 ft | 22 kts | 311° |
| 2026-04-25 13:04 | -8.75703 | 116.27494 | 333 ft | 12 kts | 283° |
| 2026-04-25 13:05 | -8.75719 | 116.27444 | 335 ft | 2 kts | 237° |
| 2026-04-25 13:05 | -8.75731 | 116.27429 | 337 ft | 4 kts | 231° |
| 2026-04-25 13:05 | -8.75753 | 116.27405 | 335 ft | 6 kts | 226° |
| 2026-04-25 13:05 | -8.75786 | 116.27376 | 334 ft | 7 kts | 219° |
| 2026-04-25 13:06 | -8.75828 | 116.27345 | 334 ft | 8 kts | 214° |
| 2026-04-25 13:06 | -8.75875 | 116.27310 | 336 ft | 5 kts | 227° |
| 2026-04-25 13:06 | -8.75876 | 116.27308 | 335 ft | 0 kts | 234° |
| 2026-04-25 13:06 | -8.75876 | 116.27306 | 335 ft | 0 kts | 251° |
| 2026-04-25 13:07 | -8.75875 | 116.27302 | 335 ft | 1 kts | 272° |
| 2026-04-25 13:07 | -8.75873 | 116.27287 | 335 ft | 5 kts | 277° |
| 2026-04-25 13:07 | -8.75889 | 116.27258 | 334 ft | 7 kts | 225° |
| 2026-04-25 13:07 | -8.75930 | 116.27225 | 336 ft | 4 kts | 218° |
| 2026-04-25 13:08 | -8.75934 | 116.27221 | 336 ft | 0 kts | 218° |